createdAt,value
2018-11-14T00:00:14.838Z,17.39
2018-11-14T00:02:43.293Z,17.40
2018-11-14T00:05:10.751Z,17.33
2018-11-14T00:07:38.335Z,17.27
2018-11-14T00:10:06.634Z,17.37
2018-11-14T00:12:34.063Z,17.42
2018-11-14T00:15:04.074Z,17.42
2018-11-14T00:17:31.481Z,17.39
2018-11-14T00:19:58.970Z,17.28
2018-11-14T00:22:26.487Z,17.06
2018-11-14T00:24:54.135Z,16.82
2018-11-14T00:27:22.213Z,16.83
2018-11-14T00:29:49.638Z,16.96
2018-11-14T00:32:17.181Z,17.01
2018-11-14T00:34:44.643Z,17.02
2018-11-14T00:37:12.126Z,17.12
2018-11-14T00:39:41.749Z,17.10
2018-11-14T00:42:09.330Z,17.00
2018-11-14T00:44:36.857Z,17.00
2018-11-14T00:47:04.405Z,16.90
2018-11-14T00:49:32.003Z,16.98
2018-11-14T00:52:00.381Z,16.69
2018-11-14T00:54:27.938Z,16.75
2018-11-14T00:56:55.507Z,16.57
2018-11-14T00:59:23.031Z,16.51
2018-11-14T01:01:50.555Z,16.25
2018-11-14T01:04:20.483Z,16.36
2018-11-14T01:06:48.979Z,16.49
2018-11-14T01:09:16.599Z,16.54
2018-11-14T01:11:44.215Z,16.52
2018-11-14T01:14:11.694Z,16.56
2018-11-14T01:16:40.142Z,16.69
2018-11-14T01:19:09.008Z,16.75
2018-11-14T01:21:36.681Z,16.77
2018-11-14T01:24:04.185Z,16.69
2018-11-14T01:26:31.743Z,16.76
2018-11-14T01:29:01.222Z,16.76
2018-11-14T01:31:28.696Z,16.69
2018-11-14T01:33:56.228Z,16.55
2018-11-14T01:36:23.805Z,16.38
2018-11-14T01:38:51.294Z,16.28
2018-11-14T01:41:19.730Z,16.38
2018-11-14T01:43:47.559Z,16.43
2018-11-14T01:46:14.989Z,16.38
2018-11-14T01:48:42.453Z,16.25
2018-11-14T01:51:09.986Z,16.39
2018-11-14T02:00:25.001Z,15.25
2018-11-14T02:02:52.568Z,15.57
2018-11-14T02:05:20.970Z,15.70
2018-11-14T02:07:48.753Z,15.94
2018-11-14T02:10:18.203Z,16.03
2018-11-14T02:12:45.961Z,15.89
2018-11-14T02:15:16.823Z,16.00
2018-11-14T02:17:46.439Z,15.99
2018-11-14T02:20:14.055Z,15.91
2018-11-14T02:22:42.708Z,15.84
2018-11-14T02:25:11.041Z,15.79
2018-11-14T02:27:38.557Z,15.84
2018-11-14T02:30:09.600Z,16.03
2018-11-14T02:32:37.025Z,16.03
2018-11-14T02:35:05.066Z,15.97
2018-11-14T02:37:32.632Z,16.14
2018-11-14T02:40:00.045Z,16.18
2018-11-14T02:42:29.570Z,16.18
2018-11-14T02:44:57.424Z,16.09
2018-11-14T02:47:24.844Z,16.05
2018-11-14T02:49:52.438Z,16.14
2018-11-14T02:52:19.929Z,16.28
2018-11-14T02:54:48.531Z,16.33
2018-11-14T02:57:15.955Z,16.49
2018-11-14T02:59:44.386Z,16.24
2018-11-14T03:02:11.877Z,15.96
2018-11-14T03:04:39.389Z,16.22
2018-11-14T03:07:09.242Z,16.10
2018-11-14T03:09:36.700Z,16.20
2018-11-14T03:12:04.424Z,16.21
2018-11-14T03:14:32.075Z,16.09
2018-11-14T03:16:59.527Z,16.18
2018-11-14T03:19:27.946Z,15.89
2018-11-14T03:21:55.412Z,16.07
2018-11-14T03:24:22.830Z,15.92
2018-11-14T03:26:50.294Z,16.05
2018-11-14T03:29:17.873Z,16.14
2018-11-14T03:31:47.085Z,16.24
2018-11-14T03:34:14.686Z,15.91
2018-11-14T03:36:43.213Z,16.04
2018-11-14T03:39:10.717Z,15.80
2018-11-14T03:41:38.172Z,15.95
2018-11-14T03:44:06.734Z,16.00
2018-11-14T03:46:34.343Z,15.86
2018-11-14T03:49:01.917Z,15.73
2018-11-14T03:51:29.501Z,15.66
2018-11-14T03:53:56.971Z,15.66
2018-11-14T03:56:25.758Z,15.39
2018-11-14T03:58:54.645Z,14.91
2018-11-14T04:01:22.102Z,15.38
2018-11-14T04:03:49.567Z,15.46
2018-11-14T04:06:17.108Z,15.15
2018-11-14T04:08:45.657Z,14.49
2018-11-14T04:11:13.267Z,14.98
2018-11-14T04:13:40.835Z,15.20
2018-11-14T04:16:08.419Z,15.16
2018-11-14T04:18:35.903Z,15.28
2018-11-14T04:21:04.996Z,15.29
2018-11-14T04:23:32.457Z,15.48
2018-11-14T04:25:59.907Z,15.30
2018-11-14T04:28:27.427Z,15.58
2018-11-14T04:30:54.979Z,15.63
2018-11-14T04:33:23.402Z,15.61
2018-11-14T04:35:52.201Z,15.42
2018-11-14T04:38:19.642Z,14.98
2018-11-14T04:40:47.220Z,15.28
2018-11-14T04:43:14.685Z,15.47
2018-11-14T04:45:43.698Z,15.40
2018-11-14T04:48:11.568Z,15.41
2018-11-14T04:50:39.009Z,15.56
2018-11-14T04:53:07.390Z,15.60
2018-11-14T04:55:34.870Z,15.55
2018-11-14T04:58:04.301Z,15.58
2018-11-14T05:00:31.822Z,15.42
2018-11-14T05:02:59.260Z,15.18
2018-11-14T05:05:26.831Z,15.55
2018-11-14T05:07:54.276Z,15.52
2018-11-14T05:10:24.924Z,15.53
2018-11-14T05:12:52.704Z,15.45
2018-11-14T05:15:21.426Z,15.67
2018-11-14T05:17:49.496Z,15.57
2018-11-14T05:20:18.085Z,15.62
2018-11-14T05:22:47.694Z,15.46
2018-11-14T05:25:15.255Z,15.63
2018-11-14T05:27:42.960Z,15.77
2018-11-14T05:30:12.733Z,15.63
2018-11-14T05:32:40.600Z,15.75
2018-11-14T05:35:11.892Z,15.72
2018-11-14T05:37:39.920Z,15.38
2018-11-14T05:40:11.824Z,15.10
2018-11-14T05:42:39.954Z,15.37
2018-11-14T05:45:11.698Z,15.18
2018-11-14T05:47:39.790Z,15.25
2018-11-14T05:50:11.158Z,15.19
2018-11-14T05:52:38.805Z,15.10
2018-11-14T05:55:06.566Z,15.12
2018-11-14T05:57:36.077Z,15.17
2018-11-14T06:00:05.293Z,14.81
2018-11-14T06:02:32.886Z,15.04
2018-11-14T06:05:00.473Z,14.97
2018-11-14T06:07:27.919Z,15.00
2018-11-14T06:09:56.465Z,15.19
2018-11-14T06:12:24.209Z,15.13
2018-11-14T06:14:51.711Z,14.98
2018-11-14T06:17:19.164Z,14.77
2018-11-14T06:19:46.690Z,14.85
2018-11-14T06:22:16.066Z,14.70
2018-11-14T06:24:43.553Z,15.12
2018-11-14T06:27:11.162Z,14.90
2018-11-14T06:29:38.977Z,15.06
2018-11-14T06:32:06.652Z,14.79
2018-11-14T06:34:36.156Z,14.63
2018-11-14T06:37:03.675Z,14.66
2018-11-14T06:39:31.226Z,14.91
2018-11-14T06:41:58.811Z,14.83
2018-11-14T06:44:26.290Z,14.70
2018-11-14T06:46:55.338Z,14.97
2018-11-14T06:49:22.923Z,15.07
2018-11-14T06:51:50.760Z,15.01
2018-11-14T06:54:18.283Z,14.83
2018-11-14T06:56:45.889Z,14.75
2018-11-14T06:59:14.340Z,14.81
2018-11-14T07:01:41.817Z,14.95
2018-11-14T07:04:09.471Z,14.79
2018-11-14T07:06:36.930Z,14.53
2018-11-14T07:09:07.869Z,14.66
2018-11-14T07:11:37.275Z,14.65
2018-11-14T07:14:04.927Z,14.51
2018-11-14T07:16:32.394Z,14.24
2018-11-14T07:18:59.984Z,14.60
2018-11-14T07:21:27.464Z,14.60
2018-11-14T07:23:56.133Z,14.79
2018-11-14T07:26:24.764Z,14.75
2018-11-14T07:28:52.259Z,14.73
2018-11-14T07:31:19.722Z,14.76
2018-11-14T07:33:47.394Z,14.77
2018-11-14T07:36:16.973Z,14.32
2018-11-14T07:38:45.659Z,14.69
2018-11-14T07:41:16.549Z,13.58
2018-11-14T07:43:44.452Z,14.34
2018-11-14T07:46:12.442Z,14.07
2018-11-14T07:48:41.318Z,14.34
2018-11-14T07:51:08.916Z,14.16
2018-11-14T07:53:38.287Z,14.05
2018-11-14T07:56:05.884Z,13.26
2018-11-14T07:58:33.371Z,13.71
2018-11-14T08:01:01.899Z,13.87
2018-11-14T08:03:30.368Z,13.99
2018-11-14T08:05:58.072Z,13.56
2018-11-14T08:08:25.656Z,14.01
2018-11-14T08:10:53.309Z,14.04
2018-11-14T08:13:27.465Z,13.79
2018-11-14T08:15:56.659Z,13.70
2018-11-14T08:18:24.462Z,13.71
2018-11-14T08:20:51.932Z,13.70
2018-11-14T08:23:19.475Z,13.56
2018-11-14T08:25:48.046Z,13.64
2018-11-14T08:28:16.284Z,13.82
2018-11-14T08:30:44.463Z,13.44
2018-11-14T08:33:11.899Z,13.60
2018-11-14T08:35:39.470Z,13.63
2018-11-14T08:38:09.883Z,13.62
2018-11-14T08:40:37.444Z,13.24
2018-11-14T08:43:05.521Z,13.49
2018-11-14T08:45:33.049Z,13.55
2018-11-14T08:48:00.501Z,13.55
2018-11-14T08:50:29.137Z,13.59
2018-11-14T08:52:56.745Z,13.60
2018-11-14T08:55:25.389Z,13.93
2018-11-14T08:57:52.876Z,13.64
2018-11-14T09:00:25.229Z,14.17
2018-11-14T09:02:55.699Z,13.92
2018-11-14T09:05:25.345Z,14.14
2018-11-14T09:07:53.013Z,14.35
2018-11-14T09:10:21.851Z,14.27
2018-11-14T09:12:49.639Z,13.46
2018-11-14T09:15:21.227Z,13.58
2018-11-14T09:17:48.875Z,13.91
2018-11-14T09:20:17.838Z,13.95
2018-11-14T09:22:45.578Z,13.96
2018-11-14T09:25:14.804Z,14.06
2018-11-14T09:27:44.185Z,14.52
2018-11-14T09:30:15.147Z,14.26
2018-11-14T09:32:42.648Z,14.55
2018-11-14T09:35:11.875Z,14.01
2018-11-14T09:37:39.878Z,14.10
2018-11-14T09:40:11.317Z,14.52
2018-11-14T09:42:39.053Z,14.52
2018-11-14T09:45:10.303Z,14.93
2018-11-14T09:47:37.882Z,15.22
2018-11-14T09:50:08.994Z,15.53
2018-11-14T09:52:37.030Z,14.70
2018-11-14T09:55:05.950Z,15.50
2018-11-14T09:57:34.541Z,15.73
2018-11-14T10:00:02.101Z,15.73
2018-11-14T10:02:30.485Z,15.66
2018-11-14T10:04:57.981Z,15.94
2018-11-14T10:07:26.320Z,15.65
2018-11-14T10:09:53.773Z,15.49
2018-11-14T10:12:21.429Z,15.92
2018-11-14T10:14:50.665Z,16.42
2018-11-14T10:17:18.310Z,16.28
2018-11-14T10:19:46.272Z,16.18
2018-11-14T10:22:14.147Z,16.56
2018-11-14T10:24:41.852Z,15.93
2018-11-14T10:27:09.865Z,16.27
2018-11-14T10:29:37.417Z,15.35
2018-11-14T10:32:05.455Z,15.95
2018-11-14T10:34:32.976Z,16.66
2018-11-14T10:37:03.891Z,17.48
2018-11-14T10:39:33.705Z,17.82
2018-11-14T10:42:01.358Z,17.68
2018-11-14T10:44:30.298Z,16.79
2018-11-14T10:46:59.604Z,17.38
2018-11-14T10:49:29.022Z,16.71
2018-11-14T10:51:57.559Z,16.89
2018-11-14T10:54:25.341Z,17.61
2018-11-14T10:56:53.402Z,18.42
2018-11-14T10:59:22.642Z,18.29
2018-11-14T11:01:55.793Z,19.36
2018-11-14T11:04:30.372Z,18.90
2018-11-14T11:07:03.970Z,18.70
2018-11-14T11:09:42.271Z,18.39
2018-11-14T11:12:15.457Z,17.43
2018-11-14T11:14:49.671Z,17.77
2018-11-14T11:17:21.747Z,18.02
2018-11-14T11:19:59.245Z,17.86
2018-11-14T11:22:34.451Z,17.71
2018-11-14T11:25:10.985Z,17.13
2018-11-14T11:27:48.332Z,17.33
2018-11-14T11:30:24.777Z,17.67
2018-11-14T11:32:58.298Z,17.68
2018-11-14T11:38:06.705Z,17.79
2018-11-14T11:40:41.081Z,17.94
2018-11-14T11:43:10.840Z,17.47
2018-11-14T11:45:40.581Z,17.41
2018-11-14T11:48:08.711Z,17.84
2018-11-14T11:50:41.254Z,17.91
2018-11-14T11:53:15.480Z,18.19
2018-11-14T11:55:43.979Z,17.55
2018-11-14T11:58:13.435Z,17.25
2018-11-14T12:00:41.936Z,18.10
2018-11-14T12:03:09.428Z,18.77
2018-11-14T12:05:37.249Z,18.99
2018-11-14T12:08:11.120Z,19.82
2018-11-14T12:10:39.258Z,19.92
2018-11-14T12:13:06.947Z,20.29
2018-11-14T12:15:34.536Z,20.60
2018-11-14T12:18:03.423Z,20.86
2018-11-14T12:20:33.338Z,20.95
2018-11-14T12:23:01.430Z,20.67
2018-11-14T12:25:29.206Z,20.44
2018-11-14T12:27:56.846Z,21.34
2018-11-14T12:30:24.627Z,21.80
2018-11-14T12:32:53.097Z,21.86
2018-11-14T12:35:21.524Z,21.37
2018-11-14T12:37:49.898Z,21.52
2018-11-14T12:40:17.868Z,21.57
2018-11-14T12:42:45.521Z,21.54
2018-11-14T12:45:15.667Z,21.28
2018-11-14T12:47:43.869Z,21.15
2018-11-14T12:50:12.554Z,20.62
2018-11-14T12:52:40.430Z,21.08
2018-11-14T12:55:11.559Z,20.73
2018-11-14T12:57:39.691Z,20.05
2018-11-14T13:00:09.544Z,20.29
2018-11-14T13:02:38.033Z,20.20
2018-11-14T13:05:06.597Z,19.49
2018-11-14T13:07:34.158Z,19.29
2018-11-14T13:10:02.172Z,19.71
2018-11-14T13:12:30.639Z,19.35
2018-11-14T13:14:58.124Z,19.40
2018-11-14T13:17:27.499Z,19.77
2018-11-14T13:19:55.530Z,19.61
2018-11-14T13:22:24.264Z,19.44
2018-11-14T13:24:52.694Z,18.67
2018-11-14T13:27:20.517Z,19.43
2018-11-14T13:29:48.496Z,19.51
2018-11-14T13:32:16.269Z,19.69
2018-11-14T13:34:44.546Z,19.90
2018-11-14T13:37:12.762Z,19.78
2018-11-14T13:39:40.488Z,19.71
2018-11-14T13:42:08.369Z,19.89
2018-11-14T13:44:35.960Z,19.95
2018-11-14T13:47:05.104Z,19.93
2018-11-14T13:49:33.193Z,19.72
2018-11-14T13:52:00.497Z,20.03
2018-11-14T13:54:28.519Z,19.53
2018-11-14T13:56:56.255Z,19.74
2018-11-14T13:59:24.343Z,19.37
2018-11-14T14:01:52.553Z,19.11
2018-11-14T14:04:21.791Z,19.11
2018-11-14T14:06:49.308Z,18.14
2018-11-14T14:09:17.117Z,18.43
2018-11-14T14:11:45.149Z,18.42
2018-11-14T14:14:14.675Z,19.05
2018-11-14T14:16:43.256Z,19.43
2018-11-14T14:19:11.052Z,18.77
2018-11-14T14:21:39.053Z,18.97
2018-11-14T14:24:07.800Z,18.69
2018-11-14T14:26:36.842Z,18.86
2018-11-14T14:29:04.677Z,18.83
2018-11-14T14:31:32.475Z,18.96
2018-11-14T14:34:00.149Z,19.09
2018-11-14T14:36:28.344Z,19.07
2018-11-14T14:38:57.939Z,19.08
2018-11-14T14:41:25.582Z,18.83
2018-11-14T14:43:53.224Z,18.54
2018-11-14T14:46:20.868Z,18.71
2018-11-14T14:48:49.451Z,18.69
2018-11-14T14:51:17.439Z,18.96
2018-11-14T14:53:45.173Z,19.07
2018-11-14T14:56:13.100Z,18.90
2018-11-14T15:12:11.654Z,18.70
2018-11-14T15:14:39.395Z,18.87
2018-11-14T15:17:06.958Z,18.91
2018-11-14T15:19:36.221Z,18.72
2018-11-14T15:22:04.595Z,18.84
2018-11-14T15:24:32.695Z,18.81
2018-11-14T15:27:00.408Z,18.64
2018-11-14T15:29:27.980Z,19.07
2018-11-14T15:31:55.638Z,18.81
2018-11-14T15:37:30.307Z,18.61
2018-11-14T15:39:57.962Z,18.42
2018-11-14T15:42:25.489Z,18.56
2018-11-14T15:44:54.276Z,18.42
2018-11-14T15:47:21.973Z,18.64
2018-11-14T15:49:49.577Z,18.33
2018-11-14T15:52:17.157Z,18.27
2018-11-14T15:54:45.835Z,17.88
2018-11-14T15:57:14.468Z,17.83
2018-11-14T15:59:42.114Z,18.15
2018-11-14T16:02:09.912Z,17.85
2018-11-14T16:04:37.558Z,17.82
2018-11-14T16:07:05.389Z,18.13
2018-11-14T16:09:35.053Z,17.94
2018-11-14T16:12:02.792Z,18.07
2018-11-14T16:14:32.128Z,18.16
2018-11-14T16:16:59.780Z,18.50
2018-11-14T16:19:27.421Z,18.68
2018-11-14T16:21:56.113Z,18.86
2018-11-14T16:24:23.978Z,18.84
2018-11-14T16:26:51.484Z,18.73
2018-11-14T16:29:20.481Z,18.82
2018-11-14T16:31:49.715Z,18.75
2018-11-14T16:34:18.693Z,18.79
2018-11-14T16:36:46.341Z,18.22
2018-11-14T16:39:14.023Z,17.80
2018-11-14T16:41:41.620Z,17.85
2018-11-14T16:44:09.638Z,17.51
2018-11-14T16:46:39.233Z,17.83
2018-11-14T16:49:06.866Z,17.78
2018-11-14T16:51:35.290Z,17.41
2018-11-14T16:54:02.955Z,17.72
2018-11-14T16:56:30.486Z,18.08
2018-11-14T16:59:01.565Z,18.01
2018-11-14T17:01:29.325Z,17.77
2018-11-14T17:03:56.869Z,17.95
2018-11-14T17:06:24.500Z,17.24
2018-11-14T17:08:52.122Z,16.90
2018-11-14T17:11:20.941Z,16.93
2018-11-14T17:13:48.498Z,16.43
2018-11-14T17:16:18.277Z,17.03
2018-11-14T17:18:45.941Z,16.83
2018-11-14T17:21:13.500Z,17.27
2018-11-14T17:23:42.041Z,17.34
2018-11-14T17:26:09.827Z,17.45
2018-11-14T17:28:37.469Z,17.59
2018-11-14T17:31:05.738Z,17.65
2018-11-14T17:33:33.845Z,17.39
2018-11-14T17:36:03.940Z,17.33
2018-11-14T17:38:32.284Z,16.92
2018-11-14T17:41:02.858Z,17.00
2018-11-14T17:43:30.623Z,17.05
2018-11-14T17:47:27.884Z,16.76
2018-11-14T17:49:56.742Z,16.28
2018-11-14T17:52:24.366Z,16.51
2018-11-14T17:54:53.148Z,16.41
2018-11-14T17:57:20.788Z,16.52
2018-11-14T17:59:48.397Z,16.19
2018-11-14T18:02:17.539Z,15.67
2018-11-14T18:04:45.210Z,16.30
2018-11-14T18:07:12.889Z,16.39
2018-11-14T18:09:40.542Z,16.71
2018-11-14T18:12:08.233Z,16.29
2018-11-14T18:14:37.065Z,16.68
2018-11-14T18:17:06.449Z,15.90
2018-11-14T18:19:34.005Z,16.29
2018-11-14T18:22:01.728Z,16.03
2018-11-14T18:24:29.802Z,16.14
2018-11-14T18:26:59.289Z,15.90
2018-11-14T18:29:27.368Z,15.87
2018-11-14T18:31:55.180Z,15.64
2018-11-14T18:34:22.749Z,15.90
2018-11-14T18:36:50.245Z,16.00
2018-11-14T18:39:18.761Z,16.26
2018-11-14T18:41:46.268Z,16.19
2018-11-14T18:44:13.793Z,16.29
2018-11-14T18:46:42.298Z,16.23
2018-11-14T18:49:10.002Z,16.26
2018-11-14T18:51:40.758Z,15.64
2018-11-14T18:54:09.996Z,15.76
2018-11-14T18:56:38.061Z,15.89
2018-11-14T18:59:05.974Z,15.28
2018-11-14T19:01:33.819Z,14.52
2018-11-14T19:04:02.947Z,15.27
2018-11-14T19:06:30.795Z,15.52
2018-11-14T19:08:58.795Z,15.89
2018-11-14T19:11:26.611Z,15.76
2018-11-14T19:13:54.456Z,15.23
2018-11-14T19:16:25.199Z,14.83
2018-11-14T19:18:53.095Z,14.76
2018-11-14T19:21:20.860Z,15.13
2018-11-14T19:23:48.697Z,15.03
2018-11-14T19:26:16.410Z,15.42
2018-11-14T19:28:44.887Z,15.54
2018-11-14T19:31:12.608Z,15.77
2018-11-14T19:33:40.464Z,15.33
2018-11-14T19:36:08.132Z,15.22
2018-11-14T19:38:35.794Z,15.25
2018-11-14T19:41:05.353Z,15.30
2018-11-14T19:45:02.509Z,14.99
2018-11-14T19:47:30.167Z,14.87
2018-11-14T19:49:58.061Z,14.68
2018-11-14T19:52:26.964Z,15.11
2018-11-14T19:54:54.872Z,15.00
2018-11-14T19:57:22.496Z,15.33
2018-11-14T19:59:50.949Z,14.97
2018-11-14T20:02:18.663Z,14.78
2018-11-14T20:04:48.932Z,15.05
2018-11-14T20:07:17.128Z,14.47
2018-11-14T20:09:44.829Z,14.47
2018-11-14T20:12:12.601Z,14.44
2018-11-14T20:14:40.300Z,13.63
2018-11-14T20:17:08.883Z,14.45
2018-11-14T20:19:41.863Z,14.63
2018-11-14T20:22:11.111Z,14.47
2018-11-14T20:24:38.847Z,14.32
2018-11-14T20:27:07.127Z,14.06
2018-11-14T20:29:36.546Z,14.05
2018-11-14T20:32:04.366Z,13.86
2018-11-14T20:34:32.398Z,14.04
2018-11-14T20:37:00.002Z,13.34
2018-11-14T20:39:27.677Z,13.34
2018-11-14T20:41:56.169Z,13.51
2018-11-14T20:44:23.724Z,13.28
2018-11-14T20:46:51.189Z,13.01
2018-11-14T20:49:21.024Z,13.28
2018-11-14T20:51:48.473Z,13.33
2018-11-14T20:54:16.654Z,13.23
2018-11-14T20:56:44.989Z,13.83
2018-11-14T20:59:12.519Z,13.51
2018-11-14T21:01:40.404Z,13.72
2018-11-14T21:04:08.320Z,12.68
2018-11-14T21:06:37.637Z,13.08
2018-11-14T21:09:07.878Z,13.38
2018-11-14T21:11:39.742Z,13.49
2018-11-14T21:14:14.884Z,13.36
2018-11-14T21:16:42.974Z,13.14
2018-11-14T21:19:10.494Z,13.56
2018-11-14T21:21:38.869Z,13.40
2018-11-14T21:24:06.581Z,13.72
2018-11-14T21:26:35.230Z,13.27
2018-11-14T21:29:05.613Z,13.56
2018-11-14T21:31:34.457Z,14.12
2018-11-14T21:34:02.202Z,13.66
2018-11-14T21:36:29.731Z,13.85
2018-11-14T21:38:57.759Z,14.07
2018-11-14T21:41:26.520Z,14.49
2018-11-14T21:43:54.726Z,14.24
2018-11-14T21:46:22.590Z,14.38
2018-11-14T21:48:50.254Z,14.68
2018-11-14T21:51:18.155Z,14.66
2018-11-14T21:53:47.139Z,14.27
2018-11-14T21:56:14.829Z,13.81
2018-11-14T21:58:42.561Z,14.10
2018-11-14T22:01:10.322Z,14.37
2018-11-14T22:03:38.526Z,14.42
2018-11-14T22:06:06.843Z,14.12
2018-11-14T22:08:34.571Z,14.07
2018-11-14T22:11:02.418Z,14.45
2018-11-14T22:13:30.160Z,13.88
2018-11-14T22:15:58.390Z,14.36
2018-11-14T22:18:27.113Z,14.38
2018-11-14T22:20:54.952Z,14.18
2018-11-14T22:23:23.015Z,13.84
2018-11-14T22:25:50.856Z,13.78
2018-11-14T22:28:19.044Z,13.45
2018-11-14T22:30:47.568Z,13.72
2018-11-14T22:33:15.279Z,13.52
2018-11-14T22:35:43.051Z,13.43
2018-11-14T22:38:11.007Z,14.15
2018-11-14T22:40:39.155Z,14.49
2018-11-14T22:43:08.634Z,14.53
2018-11-14T22:45:36.590Z,14.11
2018-11-14T22:48:05.415Z,14.21
2018-11-14T22:50:33.250Z,14.62
2018-11-14T22:53:02.842Z,14.12
2018-11-14T22:55:31.128Z,14.27
2018-11-14T22:57:58.857Z,14.18
2018-11-14T23:00:29.104Z,14.63
2018-11-14T23:02:58.028Z,14.67
2018-11-14T23:05:26.276Z,14.28
2018-11-14T23:07:57.065Z,14.60
2018-11-14T23:10:25.240Z,14.65
2018-11-14T23:12:53.031Z,13.90
2018-11-14T23:15:22.164Z,14.19
2018-11-14T23:17:50.370Z,13.80
2018-11-14T23:20:18.553Z,14.29
2018-11-14T23:22:47.160Z,13.96
2018-11-14T23:25:15.571Z,14.14
2018-11-14T23:27:44.346Z,14.34
2018-11-14T23:30:13.258Z,14.63
2018-11-14T23:32:42.764Z,14.86
2018-11-14T23:35:16.065Z,14.35
2018-11-14T23:37:44.857Z,14.36
2018-11-14T23:40:12.354Z,14.06
2018-11-14T23:42:40.305Z,14.30
2018-11-14T23:45:12.146Z,14.00
2018-11-14T23:47:39.886Z,13.79
2018-11-14T23:50:10.971Z,14.11
2018-11-14T23:52:38.445Z,14.14
2018-11-14T23:55:06.842Z,14.01
2018-11-14T23:57:34.435Z,14.24
